Time;durP1;ratioP1;P1;durP2;ratioP2;P2;SDS_P1;SDS_P2;PMS_P1;PMS_P2;Temp;Humidity;BMP_temperature;BMP_pressure;BME280_temperature;BME280_humidity;BME280_pressure;Samples;Min_cycle;Max_cycle;Signal;HPM_P1;HPM_P2
2024/03/10 00:00:17;;;;;;;10.63;4.50;;;8.20;99.90;;;;;;5043793;28;21412;-66
2024/03/10 00:02:45;;;;;;;10.73;4.30;;;8.30;99.90;;;;;;5046396;28;20447;-67
2024/03/10 00:05:15;;;;;;;9.57;3.67;;;8.40;99.90;;;;;;5044175;28;20489;-67
2024/03/10 00:07:46;;;;;;;10.30;4.40;;;8.60;99.90;;;;;;5046344;28;20462;-67
2024/03/10 00:10:15;;;;;;;13.10;3.90;;;8.60;99.90;;;;;;5045959;28;20463;-68
2024/03/10 00:12:47;;;;;;;9.97;3.73;;;8.60;99.90;;;;;;5049239;28;20459;-67
2024/03/10 00:15:16;;;;;;;10.43;3.90;;;8.60;99.90;;;;;;5036589;28;20439;-67
2024/03/10 00:17:44;;;;;;;10.40;3.97;;;8.60;99.90;;;;;;5048756;28;21113;-67
2024/03/10 00:20:14;;;;;;;10.00;4.40;;;8.60;99.90;;;;;;5056155;28;20593;-67
2024/03/10 00:22:43;;;;;;;10.27;4.30;;;8.70;99.90;;;;;;5054286;28;21192;-67
2024/03/10 00:25:16;;;;;;;11.53;4.53;;;8.70;99.90;;;;;;5039903;28;20475;-67
2024/03/10 00:27:44;;;;;;;10.90;4.57;;;8.70;99.90;;;;;;5047959;28;21076;-66
2024/03/10 00:30:13;;;;;;;13.27;4.60;;;8.80;99.90;;;;;;5049461;28;20464;-66
2024/03/10 00:32:41;;;;;;;10.97;4.57;;;8.90;99.90;;;;;;5047538;28;20457;-67
2024/03/10 00:35:11;;;;;;;10.97;4.03;;;8.80;99.90;;;;;;5046270;28;20454;-66
2024/03/10 00:37:41;;;;;;;13.57;4.60;;;8.80;99.90;;;;;;5047878;28;21155;-67
2024/03/10 00:40:09;;;;;;;10.10;4.80;;;8.80;99.90;;;;;;5047818;28;21022;-68
2024/03/10 00:42:37;;;;;;;13.90;4.87;;;8.80;99.90;;;;;;5046951;28;20505;-67
2024/03/10 00:45:07;;;;;;;12.00;4.40;;;8.80;99.90;;;;;;5046941;28;20454;-67
2024/03/10 00:47:37;;;;;;;10.03;4.13;;;8.80;99.90;;;;;;5047136;28;20945;-66
2024/03/10 00:50:08;;;;;;;10.80;4.60;;;8.80;99.90;;;;;;5048776;28;20458;-66
2024/03/10 00:52:37;;;;;;;10.53;4.40;;;8.70;99.90;;;;;;5046848;28;20466;-67
2024/03/10 00:55:07;;;;;;;10.73;4.07;;;8.70;99.90;;;;;;5047646;28;20470;-66
2024/03/10 00:57:35;;;;;;;10.80;4.63;;;8.80;99.90;;;;;;5049249;28;20877;-66
2024/03/10 01:00:05;;;;;;;11.47;5.53;;;8.70;99.90;;;;;;5052326;28;20485;-67
2024/03/10 01:02:32;;;;;;;11.83;5.10;;;8.80;99.90;;;;;;5049567;28;21178;-66
2024/03/10 01:05:00;;;;;;;9.07;3.80;;;8.80;99.90;;;;;;5048893;28;20451;-66
2024/03/10 01:07:28;;;;;;;10.30;4.40;;;8.90;99.90;;;;;;5051930;28;20569;-67
2024/03/10 01:09:57;;;;;;;10.50;4.43;;;8.90;99.90;;;;;;5045285;28;20484;-67
2024/03/10 01:12:28;;;;;;;11.20;4.53;;;8.90;99.90;;;;;;5046742;28;20462;-67
2024/03/10 01:14:57;;;;;;;13.43;4.33;;;8.80;99.90;;;;;;5046284;28;20497;-67
2024/03/10 01:17:25;;;;;;;9.93;4.07;;;8.80;99.90;;;;;;5046813;28;20466;-68
2024/03/10 01:19:53;;;;;;;10.70;4.40;;;8.70;99.90;;;;;;5046658;28;20468;-67
2024/03/10 01:22:21;;;;;;;9.53;4.17;;;8.70;99.90;;;;;;5046653;28;20447;-66
2024/03/10 01:24:49;;;;;;;9.97;4.07;;;8.70;99.90;;;;;;5046743;28;20899;-67
2024/03/10 01:27:17;;;;;;;10.07;4.57;;;8.60;99.90;;;;;;5047905;28;20466;-67
2024/03/10 01:29:46;;;;;;;9.93;4.00;;;8.60;99.90;;;;;;5045189;28;20818;-67
2024/03/10 01:32:14;;;;;;;10.50;4.20;;;8.60;99.90;;;;;;5045830;28;20454;-67
2024/03/10 01:34:42;;;;;;;10.20;4.60;;;8.60;99.90;;;;;;5046397;28;20450;-68
2024/03/10 01:37:10;;;;;;;9.63;4.03;;;8.50;99.90;;;;;;5045765;28;20961;-67
2024/03/10 01:39:38;;;;;;;9.93;4.00;;;8.50;99.90;;;;;;5045904;28;20550;-67
2024/03/10 01:42:07;;;;;;;11.13;4.33;;;8.50;99.90;;;;;;5046188;28;20503;-67
2024/03/10 01:44:35;;;;;;;9.80;3.20;;;8.40;99.90;;;;;;5046418;28;20451;-67
2024/03/10 01:47:05;;;;;;;9.20;3.53;;;8.60;99.90;;;;;;5045601;28;21066;-67
2024/03/10 01:49:33;;;;;;;9.60;3.53;;;8.60;99.90;;;;;;5046779;28;20475;-66
2024/03/10 01:52:02;;;;;;;9.33;3.50;;;8.60;99.90;;;;;;5046366;28;20467;-67
2024/03/10 01:54:34;;;;;;;10.23;3.70;;;8.50;99.90;;;;;;5047151;28;20900;-67
2024/03/10 01:57:04;;;;;;;9.40;3.53;;;8.50;99.90;;;;;;5047662;28;20987;-67
2024/03/10 01:59:33;;;;;;;9.20;3.87;;;8.40;99.90;;;;;;5035444;28;20467;-67
2024/03/10 02:02:04;;;;;;;9.60;3.50;;;8.40;99.90;;;;;;5045553;28;20848;-67
2024/03/10 02:04:34;;;;;;;10.53;3.80;;;8.40;99.90;;;;;;5047964;28;20826;-66
2024/03/10 02:07:05;;;;;;;9.77;3.57;;;8.30;99.90;;;;;;5047864;28;20537;-66
2024/03/10 02:09:35;;;;;;;9.63;4.20;;;8.30;99.90;;;;;;5047932;28;20457;-65
2024/03/10 02:12:05;;;;;;;11.40;4.50;;;8.40;99.90;;;;;;5046656;28;20483;-66
2024/03/10 02:14:33;;;;;;;10.13;3.87;;;8.40;99.90;;;;;;5050278;28;20525;-66
2024/03/10 02:17:02;;;;;;;8.93;3.50;;;8.30;99.90;;;;;;5048708;28;20469;-66
2024/03/10 02:19:30;;;;;;;9.47;3.27;;;8.30;99.90;;;;;;5047267;28;20458;-66
2024/03/10 02:21:59;;;;;;;9.43;3.90;;;8.20;99.90;;;;;;5048474;28;20567;-66
2024/03/10 02:24:33;;;;;;;10.67;3.13;;;8.20;99.90;;;;;;5047714;28;20441;-66
2024/03/10 02:27:04;;;;;;;9.57;3.70;;;8.10;99.90;;;;;;5048893;28;20877;-66
2024/03/10 02:29:49;;;;;;;9.67;3.90;;;8.10;99.90;;;;;;5052209;28;20559;-65
2024/03/10 02:48:53;;;;;;;8.80;3.47;;;8.40;99.90;;;;;;5044639;28;20533;-66
2024/03/10 02:51:23;;;;;;;9.83;3.70;;;8.40;99.90;;;;;;5047636;28;20435;-65
2024/03/10 02:53:51;;;;;;;9.13;3.07;;;8.40;99.90;;;;;;5049258;28;20521;-66
2024/03/10 02:56:22;;;;;;;9.17;3.37;;;8.40;99.90;;;;;;5048308;28;20560;-66
2024/03/10 02:58:51;;;;;;;8.90;2.97;;;8.40;99.90;;;;;;5048160;28;21136;-65
2024/03/10 03:01:21;;;;;;;10.00;3.80;;;8.40;99.30;;;;;;5047600;28;20542;-65
2024/03/10 03:03:51;;;;;;;9.60;2.77;;;8.50;98.80;;;;;;5047725;28;20944;-65
2024/03/10 03:06:19;;;;;;;8.90;3.40;;;8.60;98.60;;;;;;5047144;28;21128;-66
2024/03/10 03:08:47;;;;;;;9.10;3.50;;;8.50;99.40;;;;;;5050994;28;20482;-66
2024/03/10 03:11:15;;;;;;;11.17;3.60;;;8.30;99.60;;;;;;5047068;28;20448;-66
2024/03/10 03:13:43;;;;;;;9.20;3.23;;;8.20;99.40;;;;;;5047727;28;20483;-66
2024/03/10 03:16:12;;;;;;;8.50;2.83;;;8.30;98.80;;;;;;5047540;28;20928;-65
2024/03/10 03:18:41;;;;;;;8.33;3.00;;;8.30;98.50;;;;;;5042921;28;20491;-65
2024/03/10 03:21:09;;;;;;;8.47;2.87;;;8.30;98.30;;;;;;5047237;28;20480;-65
2024/03/10 03:23:37;;;;;;;10.60;2.90;;;8.30;98.30;;;;;;5047801;28;20865;-65
2024/03/10 03:26:05;;;;;;;8.03;2.50;;;8.20;98.70;;;;;;5047370;28;20539;-66
2024/03/10 03:28:34;;;;;;;9.10;3.53;;;8.10;98.60;;;;;;5047829;28;20489;-65
2024/03/10 03:31:03;;;;;;;9.10;3.17;;;8.00;99.10;;;;;;5046812;28;21109;-66
2024/03/10 03:33:32;;;;;;;8.77;3.07;;;7.80;99.60;;;;;;5047032;28;20438;-66
2024/03/10 03:36:01;;;;;;;9.40;2.87;;;7.70;99.90;;;;;;5047604;28;20447;-65
2024/03/10 03:38:29;;;;;;;9.00;2.80;;;7.70;99.90;;;;;;5048507;28;20455;-66
2024/03/10 03:40:56;;;;;;;9.13;2.80;;;7.70;99.90;;;;;;5050983;28;20480;-66
2024/03/10 03:43:24;;;;;;;9.70;3.10;;;7.60;99.60;;;;;;5047065;28;20475;-66
2024/03/10 03:45:53;;;;;;;9.33;2.70;;;7.60;99.90;;;;;;5047178;28;20598;-66
2024/03/10 03:48:21;;;;;;;8.47;3.10;;;7.50;99.90;;;;;;5043601;28;20444;-66
2024/03/10 03:50:50;;;;;;;8.67;2.80;;;7.50;99.90;;;;;;5047216;28;21036;-66
2024/03/10 03:53:19;;;;;;;9.63;3.17;;;7.50;99.90;;;;;;5045899;28;20506;-66
2024/03/10 03:55:47;;;;;;;9.50;4.40;;;7.50;99.90;;;;;;5048526;28;20465;-66
2024/03/10 03:58:16;;;;;;;10.80;2.67;;;7.50;99.90;;;;;;5047268;28;20447;-65
2024/03/10 04:00:44;;;;;;;9.77;3.23;;;7.50;99.90;;;;;;5047408;28;20501;-65
2024/03/10 04:03:12;;;;;;;8.40;2.77;;;7.60;99.90;;;;;;5046942;28;20482;-66
2024/03/10 04:05:41;;;;;;;8.60;3.17;;;7.60;99.90;;;;;;5047652;28;20545;-66
2024/03/10 04:08:11;;;;;;;8.40;2.37;;;7.70;99.90;;;;;;5047110;28;20451;-65
2024/03/10 04:10:39;;;;;;;9.83;3.20;;;7.70;99.80;;;;;;5050961;28;20560;-65
2024/03/10 04:13:07;;;;;;;8.17;2.70;;;7.90;99.40;;;;;;5049158;28;20445;-65
2024/03/10 04:15:35;;;;;;;9.70;4.37;;;7.90;99.20;;;;;;5047215;28;20958;-65
2024/03/10 04:18:05;;;;;;;8.80;2.90;;;7.80;98.90;;;;;;5047300;28;20531;-65
2024/03/10 04:20:33;;;;;;;8.60;2.90;;;7.80;99.00;;;;;;5042630;28;20476;-66
2024/03/10 04:23:02;;;;;;;9.20;2.20;;;7.70;98.60;;;;;;5042437;28;20479;-65
2024/03/10 04:25:32;;;;;;;9.07;2.50;;;7.80;98.10;;;;;;5046841;28;20449;-65
2024/03/10 04:28:01;;;;;;;8.90;3.10;;;7.80;98.10;;;;;;5043723;28;20495;-66
2024/03/10 04:30:29;;;;;;;10.17;3.23;;;7.70;98.70;;;;;;5046970;28;20558;-65
2024/03/10 04:32:57;;;;;;;7.83;2.80;;;7.50;98.60;;;;;;5046655;28;20449;-64
2024/03/10 04:35:25;;;;;;;7.70;2.20;;;7.50;98.50;;;;;;5039043;28;20451;-66
2024/03/10 04:37:53;;;;;;;9.03;2.50;;;7.50;99.00;;;;;;5046799;28;20439;-66
2024/03/10 04:40:21;;;;;;;8.30;2.80;;;7.40;98.60;;;;;;5046632;28;20547;-66
2024/03/10 04:42:51;;;;;;;9.33;3.00;;;7.60;98.30;;;;;;5044927;28;20492;-65
2024/03/10 04:45:18;;;;;;;8.83;2.50;;;7.60;98.30;;;;;;5046484;28;20483;-65
2024/03/10 04:47:46;;;;;;;8.33;2.67;;;7.50;98.90;;;;;;5046730;28;20535;-65
2024/03/10 04:50:15;;;;;;;8.67;2.40;;;7.40;99.90;;;;;;5046048;28;21119;-65
2024/03/10 04:52:44;;;;;;;8.50;3.00;;;7.20;99.90;;;;;;5046641;28;20533;-66
2024/03/10 04:55:13;;;;;;;8.60;2.50;;;7.00;99.90;;;;;;5046428;28;20966;-65
2024/03/10 04:57:41;;;;;;;8.93;2.53;;;6.90;99.90;;;;;;5049507;28;20450;-65
2024/03/10 05:00:11;;;;;;;9.00;2.93;;;6.80;99.90;;;;;;5048468;28;20836;-66
2024/03/10 05:02:39;;;;;;;10.20;2.60;;;6.70;99.90;;;;;;5046549;28;20488;-65
2024/03/10 05:05:08;;;;;;;10.07;3.20;;;6.70;99.90;;;;;;5047670;28;20865;-65
2024/03/10 05:07:37;;;;;;;9.10;2.80;;;6.80;99.90;;;;;;5050102;28;20454;-65
2024/03/10 05:10:05;;;;;;;7.67;2.37;;;6.70;99.90;;;;;;5049895;28;20493;-66
2024/03/10 05:12:35;;;;;;;8.47;2.47;;;6.70;99.90;;;;;;5049917;28;20440;-66
2024/03/10 05:15:04;;;;;;;9.77;2.60;;;6.70;99.90;;;;;;5047510;28;20452;-65
2024/03/10 05:17:33;;;;;;;7.80;2.20;;;6.80;99.90;;;;;;5049696;28;20536;-65
2024/03/10 05:20:01;;;;;;;7.50;2.23;;;6.90;99.90;;;;;;5049457;28;20467;-66
2024/03/10 05:22:30;;;;;;;8.00;2.47;;;7.00;99.90;;;;;;5049680;28;20516;-65
2024/03/10 05:24:58;;;;;;;8.10;2.87;;;7.10;99.90;;;;;;5049761;28;20451;-65
2024/03/10 05:27:26;;;;;;;7.40;2.20;;;7.10;99.90;;;;;;5049622;28;20450;-66
2024/03/10 05:29:54;;;;;;;8.73;2.40;;;7.00;99.90;;;;;;5049072;28;20468;-65
2024/03/10 05:32:22;;;;;;;7.57;1.93;;;7.10;99.90;;;;;;5049496;28;20460;-66
2024/03/10 05:34:56;;;;;;;7.87;2.00;;;7.20;99.60;;;;;;5049667;28;20498;-66
2024/03/10 05:37:24;;;;;;;7.70;1.90;;;7.20;99.90;;;;;;5049388;28;20440;-66
2024/03/10 05:39:52;;;;;;;8.33;2.17;;;7.20;99.90;;;;;;5049076;28;20461;-66
2024/03/10 05:42:21;;;;;;;7.53;1.93;;;7.20;99.90;;;;;;5048335;28;21013;-66
2024/03/10 05:44:48;;;;;;;8.00;2.10;;;7.10;99.90;;;;;;5050697;28;21084;-66
2024/03/10 05:47:17;;;;;;;7.30;1.93;;;7.10;99.60;;;;;;5049566;28;20991;-66
2024/03/10 05:49:47;;;;;;;10.50;2.60;;;7.00;99.90;;;;;;5049330;28;20498;-65
2024/03/10 05:52:16;;;;;;;8.67;2.70;;;7.00;99.90;;;;;;5048874;28;20525;-65
2024/03/10 05:54:44;;;;;;;7.10;2.20;;;7.10;99.80;;;;;;5049541;28;20442;-66
2024/03/10 05:57:12;;;;;;;8.00;2.50;;;7.10;99.70;;;;;;5049563;28;20441;-66
2024/03/10 05:59:43;;;;;;;7.63;2.30;;;6.90;99.80;;;;;;5049428;28;20465;-66
2024/03/10 06:02:13;;;;;;;8.40;2.60;;;6.90;99.90;;;;;;5049543;28;20460;-66
2024/03/10 06:04:41;;;;;;;6.90;1.43;;;6.90;99.90;;;;;;5048791;28;20465;-65
2024/03/10 06:07:11;;;;;;;9.40;2.57;;;6.80;99.90;;;;;;5048299;28;20502;-66
2024/03/10 06:09:40;;;;;;;7.80;2.20;;;6.80;99.90;;;;;;5049033;28;20467;-66
2024/03/10 06:12:09;;;;;;;8.80;2.60;;;6.80;99.90;;;;;;5046563;28;20495;-66
2024/03/10 06:14:38;;;;;;;8.53;2.50;;;6.80;99.90;;;;;;5049499;28;20796;-65
2024/03/10 06:17:08;;;;;;;8.17;2.20;;;6.80;99.90;;;;;;5049890;28;20903;-66
2024/03/10 06:25:27;;;;;;;8.77;2.53;;;6.70;99.90;;;;;;4982148;28;20514;-66
2024/03/10 06:27:57;;;;;;;8.17;2.07;;;6.80;99.90;;;;;;5033506;28;20480;-66
2024/03/10 06:30:25;;;;;;;9.70;2.77;;;6.80;99.90;;;;;;5047935;28;20479;-66
2024/03/10 06:32:53;;;;;;;8.80;2.87;;;6.90;99.90;;;;;;5049839;28;20456;-65
2024/03/10 06:35:21;;;;;;;8.00;2.20;;;7.00;99.90;;;;;;5045542;28;20460;-65
2024/03/10 06:37:49;;;;;;;8.60;2.90;;;7.10;99.90;;;;;;5048449;28;20444;-66
2024/03/10 06:40:17;;;;;;;8.90;2.73;;;7.00;99.90;;;;;;5047273;28;20565;-66
2024/03/10 06:42:47;;;;;;;7.80;2.67;;;7.00;99.90;;;;;;5050431;28;20565;-66
2024/03/10 06:45:15;;;;;;;8.70;2.50;;;6.90;99.90;;;;;;5046708;28;21114;-66
2024/03/10 06:47:43;;;;;;;8.30;2.50;;;6.90;99.90;;;;;;5042849;28;20919;-66
2024/03/10 06:50:11;;;;;;;8.87;3.03;;;6.80;99.90;;;;;;5046089;28;20460;-66
2024/03/10 06:52:40;;;;;;;8.67;3.00;;;6.80;99.90;;;;;;5046864;28;20867;-66
2024/03/10 06:55:09;;;;;;;8.80;2.80;;;6.70;99.90;;;;;;5048500;28;20901;-66
2024/03/10 06:57:38;;;;;;;9.53;3.30;;;6.70;99.90;;;;;;5047191;28;20444;-66
2024/03/10 07:00:12;;;;;;;9.30;3.10;;;6.70;99.90;;;;;;5047816;28;20863;-66
2024/03/10 07:02:45;;;;;;;8.47;2.70;;;6.70;99.90;;;;;;5047914;28;21083;-65
2024/03/10 07:05:15;;;;;;;7.53;2.47;;;6.70;99.90;;;;;;5048139;28;20472;-66
2024/03/10 07:07:43;;;;;;;9.10;2.83;;;6.70;99.90;;;;;;5048102;28;20510;-66
2024/03/10 07:10:12;;;;;;;10.87;4.27;;;6.70;99.90;;;;;;5047924;28;21057;-67
2024/03/10 07:12:40;;;;;;;10.00;3.70;;;6.70;99.90;;;;;;5048752;28;20910;-65
2024/03/10 07:15:10;;;;;;;10.80;3.43;;;6.60;99.90;;;;;;5047956;28;20542;-65
2024/03/10 07:17:39;;;;;;;9.40;3.40;;;6.60;99.90;;;;;;5047222;28;20440;-66
2024/03/10 07:20:10;;;;;;;8.37;3.53;;;6.70;99.90;;;;;;5047260;28;20495;-66
2024/03/10 07:22:38;;;;;;;11.77;3.43;;;6.70;99.90;;;;;;5047106;28;20440;-66
2024/03/10 07:25:08;;;;;;;8.67;2.40;;;6.60;99.90;;;;;;5047655;28;20486;-67
2024/03/10 07:27:36;;;;;;;13.60;3.10;;;6.70;99.90;;;;;;5051029;28;20452;-67
2024/03/10 07:30:05;;;;;;;9.10;3.10;;;6.80;99.90;;;;;;5047127;28;20492;-67
2024/03/10 07:32:34;;;;;;;8.03;2.70;;;6.90;99.90;;;;;;5047314;28;20481;-66
2024/03/10 07:35:04;;;;;;;8.77;2.70;;;7.00;99.90;;;;;;5045249;28;20856;-66
2024/03/10 07:37:32;;;;;;;9.00;2.50;;;7.20;99.90;;;;;;5046809;28;20436;-66
2024/03/10 07:40:00;;;;;;;7.80;2.60;;;7.20;99.90;;;;;;5047033;28;20513;-66
2024/03/10 07:42:28;;;;;;;9.07;2.50;;;7.20;99.90;;;;;;5049253;28;20455;-66
2024/03/10 07:44:56;;;;;;;11.97;3.30;;;7.20;99.90;;;;;;5048098;28;20503;-66
2024/03/10 07:47:25;;;;;;;10.90;3.43;;;7.30;99.90;;;;;;5047139;28;21005;-66
2024/03/10 07:49:54;;;;;;;8.87;2.40;;;7.40;99.90;;;;;;5047294;28;21141;-66
2024/03/10 07:52:22;;;;;;;8.03;2.53;;;7.50;99.90;;;;;;5058684;28;20519;-66
2024/03/10 07:54:50;;;;;;;9.43;2.97;;;7.60;99.90;;;;;;5047273;28;20498;-66
2024/03/10 07:57:18;;;;;;;8.50;3.17;;;7.70;99.90;;;;;;5047553;28;20987;-67
2024/03/10 07:59:46;;;;;;;10.50;3.70;;;7.90;99.90;;;;;;5046986;28;20476;-66
2024/03/10 08:02:15;;;;;;;8.60;2.73;;;8.10;99.90;;;;;;5046383;28;20507;-67
2024/03/10 08:04:45;;;;;;;9.50;2.73;;;8.20;99.90;;;;;;5047179;28;20522;-67
2024/03/10 08:07:15;;;;;;;7.70;2.33;;;8.30;99.90;;;;;;5047401;28;20449;-66
2024/03/10 08:09:43;;;;;;;9.17;2.67;;;8.50;99.90;;;;;;5044255;28;20477;-67
2024/03/10 08:12:11;;;;;;;9.73;3.60;;;8.70;99.90;;;;;;5046504;28;20916;-67
2024/03/10 08:14:39;;;;;;;9.63;3.20;;;8.90;99.90;;;;;;5047996;28;21057;-66
2024/03/10 08:17:08;;;;;;;7.80;2.70;;;9.00;99.90;;;;;;5046565;28;20439;-67
2024/03/10 08:19:36;;;;;;;9.07;3.23;;;9.00;99.90;;;;;;5047082;28;20475;-68
2024/03/10 08:22:05;;;;;;;7.70;2.90;;;9.20;98.90;;;;;;5043915;28;20474;-67
2024/03/10 08:24:37;;;;;;;8.47;2.70;;;9.30;97.60;;;;;;5046565;28;20533;-66
2024/03/10 08:27:08;;;;;;;8.50;2.40;;;9.40;97.90;;;;;;5046446;28;20490;-66
2024/03/10 08:29:36;;;;;;;8.57;2.80;;;9.50;96.30;;;;;;5040958;28;20468;-66
2024/03/10 08:32:06;;;;;;;9.00;2.60;;;9.60;96.80;;;;;;5046824;28;20450;-66
2024/03/10 08:34:34;;;;;;;8.73;3.00;;;9.60;96.60;;;;;;5046904;28;20435;-66
2024/03/10 08:37:02;;;;;;;7.93;3.03;;;9.60;96.50;;;;;;5046920;28;20444;-67
2024/03/10 08:39:31;;;;;;;8.03;2.53;;;9.60;96.70;;;;;;5040881;28;20527;-66
2024/03/10 08:42:00;;;;;;;8.30;2.70;;;9.70;96.90;;;;;;5050092;28;20461;-66
2024/03/10 08:44:28;;;;;;;8.03;2.47;;;9.70;96.70;;;;;;5045620;28;20485;-66
2024/03/10 08:46:56;;;;;;;8.43;2.63;;;9.80;95.80;;;;;;5047944;28;20463;-66
2024/03/10 08:49:24;;;;;;;8.77;2.50;;;9.90;95.70;;;;;;5050837;28;20471;-66
2024/03/10 08:51:52;;;;;;;7.83;2.57;;;10.00;94.00;;;;;;5049368;28;21036;-66
2024/03/10 08:54:20;;;;;;;9.33;2.80;;;10.00;94.00;;;;;;5050498;28;20874;-66
2024/03/10 08:56:48;;;;;;;8.00;2.70;;;9.90;94.40;;;;;;5050577;28;20893;-65
2024/03/10 08:59:18;;;;;;;10.80;2.80;;;10.00;93.70;;;;;;5050533;28;20564;-66
2024/03/10 09:01:46;;;;;;;7.70;2.40;;;10.10;94.80;;;;;;5047487;28;20853;-65
2024/03/10 09:04:14;;;;;;;8.30;2.50;;;10.20;94.60;;;;;;5050331;28;20485;-67
2024/03/10 09:06:45;;;;;;;8.60;3.10;;;10.30;94.30;;;;;;5049912;28;20454;-66
2024/03/10 09:09:14;;;;;;;8.03;2.30;;;10.40;93.50;;;;;;5050523;28;20477;-66
2024/03/10 09:11:42;;;;;;;7.60;2.10;;;10.30;93.50;;;;;;5049796;28;20517;-66
2024/03/10 09:14:10;;;;;;;8.17;2.30;;;10.40;93.90;;;;;;5049806;28;20446;-66
2024/03/10 09:16:40;;;;;;;8.60;2.30;;;10.50;93.90;;;;;;5053155;28;20460;-67
2024/03/10 09:19:08;;;;;;;8.30;2.53;;;10.70;94.30;;;;;;5045965;28;20573;-67
2024/03/10 09:21:36;;;;;;;8.23;2.40;;;11.10;94.60;;;;;;5049292;28;20524;-68
2024/03/10 09:24:04;;;;;;;7.53;1.97;;;11.50;92.40;;;;;;5049587;28;20443;-67
2024/03/10 09:26:32;;;;;;;7.60;1.90;;;11.80;90.80;;;;;;5047107;28;20517;-67
2024/03/10 09:29:01;;;;;;;7.77;2.03;;;11.80;90.80;;;;;;5049558;28;20438;-68
2024/03/10 09:31:30;;;;;;;8.10;2.10;;;12.10;90.80;;;;;;5051324;28;20455;-67
2024/03/10 09:34:00;;;;;;;7.27;2.00;;;12.30;87.20;;;;;;5047402;28;20478;-67
2024/03/10 09:36:28;;;;;;;8.30;2.23;;;12.50;83.70;;;;;;5048770;28;20478;-66
2024/03/10 09:38:56;;;;;;;7.93;2.47;;;12.60;82.20;;;;;;5047074;28;20930;-67
2024/03/10 09:41:26;;;;;;;7.27;1.77;;;12.70;80.20;;;;;;5043184;28;20464;-68
2024/03/10 09:43:57;;;;;;;7.50;1.90;;;13.00;81.10;;;;;;5043773;28;20571;-67
2024/03/10 09:46:25;;;;;;;10.03;2.30;;;13.10;77.40;;;;;;5050117;28;20475;-67
2024/03/10 09:48:53;;;;;;;7.20;2.17;;;13.00;76.70;;;;;;5049334;28;20455;-67
2024/03/10 09:51:23;;;;;;;8.60;2.13;;;12.70;78.50;;;;;;5047861;28;20534;-67
2024/03/10 09:53:51;;;;;;;7.60;2.20;;;12.50;79.00;;;;;;5045683;28;20455;-65
2024/03/10 09:56:19;;;;;;;7.57;2.30;;;12.40;80.60;;;;;;5049415;28;20447;-66
2024/03/10 09:58:58;;;;;;;8.50;1.73;;;12.30;80.20;;;;;;5043288;28;20495;-67
2024/03/10 10:01:27;;;;;;;9.73;2.70;;;12.10;80.50;;;;;;5047487;28;20504;-66
2024/03/10 10:03:57;;;;;;;9.10;3.80;;;12.10;81.70;;;;;;5045851;28;20482;-66
2024/03/10 10:06:31;;;;;;;9.87;5.40;;;12.10;81.20;;;;;;5047119;28;20482;-66
2024/03/10 10:09:07;;;;;;;10.50;4.50;;;12.20;80.30;;;;;;5046429;28;21020;-65
2024/03/10 10:11:35;;;;;;;8.60;2.20;;;12.40;80.30;;;;;;5046076;28;20448;-65
2024/03/10 10:14:07;;;;;;;6.80;1.77;;;12.50;79.40;;;;;;5042443;28;20558;-65
2024/03/10 10:16:35;;;;;;;7.30;2.20;;;12.60;79.80;;;;;;5045378;28;20436;-65
2024/03/10 10:19:17;;;;;;;7.60;2.17;;;12.60;78.80;;;;;;5046081;28;20492;-65
2024/03/10 10:21:47;;;;;;;7.17;1.93;;;12.40;79.40;;;;;;5048271;28;20498;-64
2024/03/10 10:24:15;;;;;;;7.77;1.90;;;12.30;79.30;;;;;;5048485;28;20437;-65
2024/03/10 10:26:43;;;;;;;7.97;2.13;;;12.30;81.00;;;;;;5048248;28;20508;-65
2024/03/10 10:29:11;;;;;;;8.30;2.50;;;12.30;80.40;;;;;;5047736;28;20458;-64
2024/03/10 10:31:40;;;;;;;8.13;2.10;;;12.30;80.30;;;;;;5047744;28;20451;-65
2024/03/10 10:34:13;;;;;;;7.97;1.80;;;12.40;79.30;;;;;;5048253;28;20486;-65
2024/03/10 10:36:43;;;;;;;8.20;2.17;;;12.40;78.90;;;;;;5047907;28;20443;-65
2024/03/10 10:39:17;;;;;;;7.17;1.80;;;12.60;80.80;;;;;;5048187;28;20469;-65
2024/03/10 10:41:45;;;;;;;9.10;2.57;;;12.80;79.80;;;;;;5041158;28;20528;-65
2024/03/10 10:44:14;;;;;;;7.80;2.03;;;12.70;78.30;;;;;;5048045;28;20475;-65
2024/03/10 10:46:44;;;;;;;7.63;2.13;;;12.80;79.70;;;;;;5048013;28;20479;-65
2024/03/10 10:49:15;;;;;;;7.60;2.20;;;13.00;77.80;;;;;;5047547;28;20455;-66
2024/03/10 10:51:45;;;;;;;8.03;1.97;;;13.20;79.50;;;;;;5046942;28;20547;-65
2024/03/10 10:54:15;;;;;;;8.63;2.27;;;13.60;78.80;;;;;;5047497;28;20443;-65
2024/03/10 10:56:44;;;;;;;7.90;2.50;;;13.50;74.30;;;;;;5047671;28;20432;-65
2024/03/10 10:59:13;;;;;;;8.07;2.50;;;13.50;74.70;;;;;;5047598;28;20467;-66
2024/03/10 11:01:43;;;;;;;7.30;1.70;;;13.70;74.40;;;;;;5047330;28;20444;-66
2024/03/10 11:04:14;;;;;;;8.90;2.87;;;13.80;73.30;;;;;;5047354;28;21183;-66
2024/03/10 11:06:43;;;;;;;9.40;3.33;;;13.80;74.10;;;;;;5048611;28;21024;-65
2024/03/10 11:09:15;;;;;;;7.53;1.90;;;13.70;73.30;;;;;;5046970;28;20471;-66
2024/03/10 11:11:51;;;;;;;7.60;1.73;;;13.50;74.60;;;;;;5047381;28;20432;-65
2024/03/10 11:14:23;;;;;;;7.90;2.10;;;13.30;75.10;;;;;;5047668;28;20497;-66
2024/03/10 11:17:10;;;;;;;7.27;1.70;;;13.00;75.10;;;;;;5047352;28;20475;-65
2024/03/10 11:19:40;;;;;;;9.43;3.20;;;13.00;76.30;;;;;;5047608;28;20452;-65
2024/03/10 11:22:09;;;;;;;7.00;1.60;;;12.90;74.70;;;;;;5052657;28;20968;-65
2024/03/10 11:24:37;;;;;;;7.20;1.70;;;12.70;75.70;;;;;;5046696;28;20459;-66
2024/03/10 11:27:17;;;;;;;7.40;1.90;;;12.60;76.20;;;;;;5047492;28;20520;-65
2024/03/10 11:29:46;;;;;;;8.10;1.70;;;12.40;75.90;;;;;;5046674;28;20977;-65
2024/03/10 11:32:30;;;;;;;7.63;1.97;;;12.50;77.20;;;;;;5046434;28;20553;-65
2024/03/10 11:35:06;;;;;;;7.37;1.90;;;12.60;77.20;;;;;;5045743;28;20463;-64
2024/03/10 11:37:36;;;;;;;8.63;1.87;;;12.70;76.20;;;;;;5048046;28;20455;-66
2024/03/10 11:40:05;;;;;;;9.20;1.80;;;12.80;76.30;;;;;;5046356;28;21044;-65
2024/03/10 11:42:35;;;;;;;7.33;1.70;;;13.00;76.60;;;;;;5046820;28;20440;-65
2024/03/10 11:45:03;;;;;;;7.80;1.87;;;13.00;75.60;;;;;;5046711;28;20451;-65
2024/03/10 11:47:32;;;;;;;7.00;1.70;;;13.00;76.70;;;;;;5047305;28;20451;-64
2024/03/10 11:50:06;;;;;;;8.50;2.00;;;13.00;76.20;;;;;;5046730;28;20464;-66
2024/03/10 11:52:34;;;;;;;7.27;1.57;;;13.00;76.50;;;;;;5046997;28;20490;-66
2024/03/10 11:55:10;;;;;;;7.63;1.40;;;13.00;76.80;;;;;;5048025;28;20454;-65
2024/03/10 11:57:41;;;;;;;7.37;1.80;;;13.00;76.90;;;;;;5046538;28;20440;-65
2024/03/10 12:00:14;;;;;;;7.27;1.60;;;13.00;77.30;;;;;;5046546;28;20463;-65
2024/03/10 12:02:43;;;;;;;9.27;1.83;;;12.90;76.20;;;;;;5043772;28;20440;-66
2024/03/10 12:05:15;;;;;;;7.23;1.60;;;13.00;76.50;;;;;;5046915;28;20803;-65
2024/03/10 12:07:46;;;;;;;6.80;1.70;;;13.00;76.00;;;;;;5047089;28;20519;-64
2024/03/10 12:10:18;;;;;;;8.30;1.57;;;13.10;76.40;;;;;;5047025;28;20464;-65
2024/03/10 12:12:51;;;;;;;6.80;1.63;;;13.30;75.00;;;;;;5046631;28;20437;-65
2024/03/10 12:15:20;;;;;;;8.27;1.87;;;13.70;75.70;;;;;;5050823;28;20458;-63
2024/03/10 12:17:49;;;;;;;7.10;1.60;;;13.90;73.70;;;;;;5051147;28;20447;-65
2024/03/10 12:20:18;;;;;;;8.23;2.00;;;13.90;72.80;;;;;;5050388;28;20474;-65
2024/03/10 12:22:48;;;;;;;7.30;1.70;;;14.00;74.00;;;;;;5050143;28;21182;-65
2024/03/10 12:25:18;;;;;;;7.13;1.70;;;14.00;70.90;;;;;;5050451;28;20942;-65
2024/03/10 12:27:48;;;;;;;8.10;2.00;;;13.90;72.10;;;;;;5050293;28;20483;-65
2024/03/10 12:30:21;;;;;;;8.37;1.93;;;13.90;73.40;;;;;;5050681;28;20460;-65
2024/03/10 12:32:50;;;;;;;7.20;2.10;;;14.00;72.90;;;;;;5049784;28;20501;-64
2024/03/10 12:35:21;;;;;;;7.20;1.67;;;13.90;73.60;;;;;;5047693;28;20450;-65
2024/03/10 12:37:50;;;;;;;7.23;1.93;;;13.80;73.80;;;;;;5049905;28;20451;-65
2024/03/10 12:40:19;;;;;;;7.03;1.60;;;13.90;75.40;;;;;;5047777;28;20464;-65
2024/03/10 12:42:47;;;;;;;8.03;1.83;;;13.90;73.90;;;;;;5049815;28;20483;-66
2024/03/10 12:45:16;;;;;;;7.97;1.87;;;13.80;74.90;;;;;;5049043;28;20848;-65
2024/03/10 12:47:48;;;;;;;6.90;1.47;;;13.80;75.30;;;;;;5049014;28;20552;-66
2024/03/10 12:50:17;;;;;;;7.17;1.80;;;13.70;75.50;;;;;;5049474;28;20814;-65
2024/03/10 12:52:45;;;;;;;7.10;1.50;;;13.50;74.40;;;;;;5049043;28;20453;-65
2024/03/10 12:55:15;;;;;;;7.63;1.90;;;13.40;75.10;;;;;;5048477;28;20455;-65
2024/03/10 12:57:44;;;;;;;6.90;1.60;;;13.40;74.70;;;;;;5049214;28;20949;-66
2024/03/10 13:00:22;;;;;;;7.13;1.30;;;13.40;75.10;;;;;;5049588;28;20467;-65
2024/03/10 13:02:58;;;;;;;6.97;1.63;;;13.60;73.10;;;;;;5047699;28;20447;-65
2024/03/10 13:05:28;;;;;;;6.57;1.40;;;14.00;73.90;;;;;;5049392;28;20444;-65
2024/03/10 13:07:58;;;;;;;8.40;2.20;;;14.20;74.50;;;;;;5049410;28;20483;-65
2024/03/10 13:10:27;;;;;;;7.00;1.70;;;14.10;74.90;;;;;;5048157;28;20529;-65
2024/03/10 13:12:55;;;;;;;7.37;1.50;;;14.10;73.70;;;;;;5050385;28;20528;-65
2024/03/10 13:15:24;;;;;;;7.50;1.60;;;14.00;73.20;;;;;;5049538;28;20483;-65
2024/03/10 13:17:53;;;;;;;9.43;2.47;;;13.90;72.40;;;;;;5048782;28;20540;-65
2024/03/10 13:20:22;;;;;;;7.60;2.10;;;13.70;70.90;;;;;;5047722;28;20460;-65
2024/03/10 13:22:50;;;;;;;8.30;2.00;;;13.60;71.80;;;;;;5047260;28;20789;-66